Time;durP1;ratioP1;P1;durP2;ratioP2;P2;SDS_P1;SDS_P2;PMS_P1;PMS_P2;Temp;Humidity;BMP_temperature;BMP_pressure;BME280_temperature;BME280_humidity;BME280_pressure;Samples;Min_cycle;Max_cycle;Signal;HPM_P1;HPM_P2
2022/01/30 00:02:07;;;;;;;2.67;2.03;;;7.30;99.90;;;;;;5053126;28;20265;-67
2022/01/30 00:04:34;;;;;;;5.20;1.92;;;7.30;99.90;;;;;;5057170;28;20205;-67
2022/01/30 00:07:02;;;;;;;4.85;2.20;;;7.30;99.90;;;;;;5049222;28;20920;-67
2022/01/30 00:09:28;;;;;;;4.10;2.22;;;7.20;99.90;;;;;;5063609;28;20278;-67
2022/01/30 00:11:59;;;;;;;5.93;1.77;;;7.20;99.90;;;;;;5056629;28;20209;-67
2022/01/30 00:14:28;;;;;;;4.68;1.73;;;7.20;99.90;;;;;;5065121;28;20209;-67
2022/01/30 00:17:00;;;;;;;4.50;1.52;;;7.20;99.90;;;;;;5082073;23;20229;-73
2022/01/30 00:19:34;;;;;;;4.38;2.35;;;7.20;99.90;;;;;;5045733;28;20214;-72
2022/01/30 00:22:14;;;;;;;3.75;2.42;;;7.10;99.90;;;;;;5049142;28;20225;-72
2022/01/30 00:24:48;;;;;;;9.30;3.67;;;7.10;99.90;;;;;;5048137;28;20205;-71
2022/01/30 00:27:19;;;;;;;2.63;1.25;;;7.10;99.90;;;;;;5050201;28;20260;-71
2022/01/30 00:29:46;;;;;;;1.40;1.30;;;7.10;99.90;;;;;;5051243;28;20210;-71
2022/01/30 00:32:12;;;;;;;3.33;1.70;;;7.20;99.90;;;;;;5050752;28;20232;-72
2022/01/30 00:34:39;;;;;;;7.88;2.58;;;7.10;99.90;;;;;;5049535;28;20259;-71
2022/01/30 00:37:07;;;;;;;1.63;1.38;;;7.10;99.90;;;;;;5045779;28;20760;-72
2022/01/30 00:39:34;;;;;;;4.18;1.92;;;7.10;99.90;;;;;;5047292;28;20198;-72
2022/01/30 00:42:01;;;;;;;10.02;1.50;;;7.00;99.90;;;;;;5044279;28;20218;-72
2022/01/30 00:44:27;;;;;;;1.58;1.40;;;6.90;99.90;;;;;;5047290;28;20209;-72
2022/01/30 00:46:55;;;;;;;5.97;2.45;;;6.90;99.90;;;;;;5051360;28;20264;-72
2022/01/30 00:49:21;;;;;;;8.73;2.20;;;6.80;99.90;;;;;;5050178;28;20194;-73
2022/01/30 00:51:48;;;;;;;2.03;1.92;;;6.80;99.90;;;;;;5050992;28;20205;-71
2022/01/30 00:54:16;;;;;;;5.40;1.70;;;6.70;99.90;;;;;;5051378;28;20630;-70
2022/01/30 00:56:43;;;;;;;9.75;1.98;;;6.70;99.90;;;;;;5041257;28;20229;-72
2022/01/30 00:59:10;;;;;;;3.35;1.70;;;6.60;99.90;;;;;;5047065;28;20795;-71
2022/01/30 01:01:36;;;;;;;3.25;1.83;;;6.60;99.90;;;;;;5048183;28;20595;-72
2022/01/30 01:04:03;;;;;;;4.03;1.75;;;6.70;99.90;;;;;;5043099;28;20721;-71
2022/01/30 01:06:30;;;;;;;11.45;3.65;;;6.60;99.90;;;;;;5046310;28;20206;-71
2022/01/30 01:09:00;;;;;;;6.03;3.13;;;6.50;99.90;;;;;;5039172;28;20226;-71
2022/01/30 01:25:08;;;;;;;2.75;1.25;;;6.30;99.90;;;;;;5041310;28;20256;-71
2022/01/30 01:27:36;;;;;;;7.57;2.13;;;6.30;99.90;;;;;;5030973;28;20223;-72
2022/01/30 01:30:03;;;;;;;2.85;1.55;;;6.30;99.90;;;;;;5046530;28;20260;-72
2022/01/30 01:32:30;;;;;;;12.20;1.95;;;6.20;99.90;;;;;;5044472;28;20198;-72
2022/01/30 01:34:57;;;;;;;1.35;0.90;;;6.20;99.90;;;;;;5037476;28;20210;-71
2022/01/30 01:37:23;;;;;;;3.83;1.48;;;6.20;99.90;;;;;;5041834;28;20649;-71
2022/01/30 01:39:50;;;;;;;2.55;1.40;;;6.20;99.90;;;;;;5045499;28;20769;-71
2022/01/30 01:42:17;;;;;;;9.70;2.22;;;6.10;99.90;;;;;;5047925;28;20222;-71
2022/01/30 01:44:48;;;;;;;2.35;1.70;;;6.10;99.90;;;;;;5043052;28;20707;-71
2022/01/30 01:47:18;;;;;;;5.28;2.40;;;6.00;99.90;;;;;;5038901;28;20707;-71
2022/01/30 01:49:46;;;;;;;8.40;1.70;;;6.00;99.90;;;;;;5033450;28;20631;-71
2022/01/30 01:52:19;;;;;;;7.72;1.63;;;6.10;99.90;;;;;;5037722;28;20230;-72
2022/01/30 01:54:48;;;;;;;3.33;1.42;;;6.10;99.90;;;;;;5041095;28;20252;-72
2022/01/30 01:57:15;;;;;;;6.60;2.15;;;6.10;99.90;;;;;;5036580;28;20711;-72
2022/01/30 01:59:42;;;;;;;3.30;1.27;;;6.00;99.90;;;;;;5037670;28;20198;-71
2022/01/30 02:02:10;;;;;;;5.03;2.88;;;6.00;99.90;;;;;;5047081;28;20214;-72
2022/01/30 02:04:40;;;;;;;6.10;2.33;;;5.90;99.90;;;;;;5045115;28;20241;-72
2022/01/30 02:07:33;;;;;;;13.52;2.85;;;6.00;99.90;;;;;;5046684;28;20225;-71
2022/01/30 02:10:04;;;;;;;4.80;1.17;;;5.90;99.90;;;;;;5042994;28;20684;-72
2022/01/30 02:12:38;;;;;;;13.52;1.60;;;6.00;99.90;;;;;;5040898;28;20195;-71
2022/01/30 02:15:19;;;;;;;9.60;1.92;;;5.90;99.90;;;;;;5044745;28;20253;-71
2022/01/30 02:26:03;;;;;;;4.32;1.98;;;5.80;99.90;;;;;;5039560;28;20264;-72
2022/01/30 02:28:32;;;;;;;4.03;1.27;;;5.80;99.90;;;;;;5048891;28;20742;-72
2022/01/30 02:31:04;;;;;;;14.88;1.52;;;5.80;99.90;;;;;;5036838;28;20479;-71
2022/01/30 02:33:31;;;;;;;0.80;0.73;;;5.80;99.90;;;;;;5036614;28;20207;-71
2022/01/30 02:35:57;;;;;;;4.60;2.25;;;5.80;99.90;;;;;;5041496;28;20202;-71
2022/01/30 02:38:27;;;;;;;3.80;1.60;;;5.80;99.90;;;;;;5043760;28;20218;-71
2022/01/30 02:40:56;;;;;;;1.52;0.93;;;5.70;99.90;;;;;;5047513;28;20198;-72
2022/01/30 02:43:28;;;;;;;4.88;1.98;;;5.70;99.90;;;;;;5041522;28;20224;-71
2022/01/30 02:46:05;;;;;;;5.47;1.25;;;5.70;99.90;;;;;;5043455;28;20210;-71
2022/01/30 02:48:45;;;;;;;3.63;1.88;;;5.70;99.90;;;;;;5036851;28;20234;-71
2022/01/30 02:51:15;;;;;;;3.92;1.92;;;5.70;99.90;;;;;;5048575;28;20193;-72
2022/01/30 02:53:46;;;;;;;7.57;2.25;;;5.70;99.90;;;;;;5038658;28;20209;-72
2022/01/30 02:56:13;;;;;;;7.53;1.50;;;5.70;99.90;;;;;;5030312;28;20210;-72
2022/01/30 02:58:40;;;;;;;6.30;2.30;;;5.70;99.90;;;;;;5040382;28;20703;-72
2022/01/30 03:01:06;;;;;;;9.88;1.95;;;5.80;99.90;;;;;;5046426;28;20229;-71
2022/01/30 03:03:33;;;;;;;3.95;1.30;;;5.80;99.90;;;;;;5048619;28;20703;-72
2022/01/30 03:06:00;;;;;;;7.20;2.85;;;5.80;99.90;;;;;;5047632;28;20675;-72
2022/01/30 03:08:26;;;;;;;1.60;1.15;;;5.80;99.90;;;;;;5043228;28;20229;-72
2022/01/30 03:10:54;;;;;;;6.32;1.35;;;5.70;99.90;;;;;;5034600;28;20285;-71
2022/01/30 03:13:21;;;;;;;10.30;2.80;;;5.60;99.90;;;;;;5044238;28;20198;-72
2022/01/30 03:15:47;;;;;;;7.70;1.73;;;5.60;99.90;;;;;;5035905;28;20571;-71
2022/01/30 03:18:14;;;;;;;6.40;1.52;;;5.60;99.90;;;;;;5048030;28;20241;-71
2022/01/30 03:20:42;;;;;;;10.65;1.67;;;5.60;99.90;;;;;;5043246;28;20754;-72
2022/01/30 03:23:08;;;;;;;2.95;2.00;;;5.50;99.90;;;;;;5035558;28;20305;-71
2022/01/30 03:25:35;;;;;;;1.13;0.93;;;5.50;99.90;;;;;;5041327;28;20210;-71
2022/01/30 03:28:04;;;;;;;13.52;2.10;;;5.40;99.90;;;;;;5050205;28;20225;-70
2022/01/30 03:30:32;;;;;;;1.83;1.67;;;5.30;99.90;;;;;;5042496;28;20206;-71
2022/01/30 03:32:59;;;;;;;6.60;2.33;;;5.30;99.90;;;;;;5044756;28;20631;-71
2022/01/30 03:35:25;;;;;;;4.43;1.70;;;5.40;99.90;;;;;;5036986;28;20569;-72
2022/01/30 03:37:52;;;;;;;8.23;1.50;;;5.40;99.90;;;;;;5046527;28;20283;-71
2022/01/30 03:40:19;;;;;;;1.02;0.93;;;5.40;99.90;;;;;;5029200;28;20206;-72
2022/01/30 03:42:45;;;;;;;8.27;3.10;;;5.40;99.90;;;;;;5032093;28;20292;-71
2022/01/30 03:45:14;;;;;;;12.50;1.95;;;5.50;99.90;;;;;;5037148;28;20391;-73
2022/01/30 03:47:40;;;;;;;2.50;1.05;;;5.50;99.90;;;;;;5045851;28;20288;-73
2022/01/30 03:50:07;;;;;;;10.18;1.95;;;5.60;99.90;;;;;;5037431;28;20198;-71
2022/01/30 03:52:34;;;;;;;6.28;2.00;;;5.70;99.90;;;;;;5056363;28;20403;-72
2022/01/30 03:55:01;;;;;;;4.68;1.52;;;5.70;99.90;;;;;;5040458;28;20233;-72
2022/01/30 03:57:27;;;;;;;2.35;1.52;;;5.80;99.90;;;;;;5031223;28;20223;-71
2022/01/30 03:59:54;;;;;;;1.80;1.10;;;5.80;99.90;;;;;;5042552;28;20394;-71
2022/01/30 04:02:22;;;;;;;6.40;2.28;;;5.90;99.90;;;;;;5047686;28;20777;-72
2022/01/30 04:04:49;;;;;;;3.63;2.17;;;5.90;99.90;;;;;;5048300;28;20202;-72
2022/01/30 04:07:16;;;;;;;5.80;1.50;;;5.90;99.90;;;;;;5043006;28;20245;-72
2022/01/30 04:09:43;;;;;;;14.68;2.42;;;5.90;99.90;;;;;;5043347;28;20256;-71
2022/01/30 04:12:11;;;;;;;6.55;1.58;;;5.90;99.90;;;;;;5039023;28;20210;-71
2022/01/30 04:14:38;;;;;;;2.20;1.20;;;5.90;99.90;;;;;;5051882;28;20208;-72
2022/01/30 04:17:08;;;;;;;10.20;2.28;;;5.90;99.90;;;;;;5050206;28;21611;-71
2022/01/30 04:19:36;;;;;;;1.60;1.25;;;5.90;99.90;;;;;;5048065;28;20205;-72
2022/01/30 04:22:04;;;;;;;2.85;1.05;;;5.90;99.90;;;;;;5053814;28;20604;-71
2022/01/30 04:24:30;;;;;;;8.30;2.22;;;5.90;99.90;;;;;;5046708;28;20443;-73
2022/01/30 04:26:57;;;;;;;1.05;0.95;;;5.90;99.90;;;;;;5049426;28;20197;-72
2022/01/30 04:29:24;;;;;;;2.75;0.98;;;5.90;99.90;;;;;;5051653;28;20206;-72
2022/01/30 04:31:51;;;;;;;6.05;1.40;;;5.90;99.90;;;;;;5049841;28;20249;-70
2022/01/30 04:34:19;;;;;;;8.57;2.08;;;5.90;99.90;;;;;;5050326;28;20602;-71
2022/01/30 04:37:00;;;;;;;5.53;1.38;;;5.90;99.90;;;;;;5045729;28;20203;-72
2022/01/30 04:39:41;;;;;;;2.33;2.13;;;5.90;99.90;;;;;;5044032;28;20208;-71
2022/01/30 04:42:31;;;;;;;5.07;1.73;;;5.80;99.90;;;;;;5044274;28;20232;-71
2022/01/30 04:53:20;;;;;;;14.23;2.05;;;5.60;99.90;;;;;;5047595;28;20683;-72
2022/01/30 04:58:33;;;;;;;8.90;1.30;;;5.60;99.90;;;;;;5049089;28;20233;-72
2022/01/30 05:01:08;;;;;;;8.18;1.80;;;5.50;99.90;;;;;;5042431;28;20207;-72
2022/01/30 05:03:55;;;;;;;2.40;1.17;;;5.40;99.90;;;;;;5041266;28;20718;-71
2022/01/30 05:06:31;;;;;;;2.97;1.48;;;5.30;99.90;;;;;;5044770;28;20234;-71
2022/01/30 05:09:00;;;;;;;2.38;1.02;;;5.40;99.90;;;;;;5040606;28;20218;-71
2022/01/30 05:11:27;;;;;;;5.78;2.20;;;5.50;99.90;;;;;;5043050;28;20687;-72
2022/01/30 05:13:54;;;;;;;2.20;1.85;;;5.60;99.90;;;;;;5044410;28;20213;-72
2022/01/30 05:16:23;;;;;;;5.22;1.20;;;5.70;99.90;;;;;;5046187;28;20213;-71
2022/01/30 05:18:50;;;;;;;6.40;2.25;;;5.60;99.90;;;;;;5047597;28;20230;-71
2022/01/30 05:21:18;;;;;;;4.55;1.10;;;5.70;99.90;;;;;;5048972;28;20580;-72
2022/01/30 05:23:45;;;;;;;4.97;1.13;;;5.70;99.90;;;;;;5046848;28;20214;-72
2022/01/30 05:26:14;;;;;;;17.85;1.83;;;5.60;99.90;;;;;;5039736;28;20213;-71
2022/01/30 05:28:42;;;;;;;2.88;2.08;;;5.60;99.90;;;;;;5039538;28;20632;-72
2022/01/30 05:31:09;;;;;;;2.45;1.40;;;5.60;99.90;;;;;;5043913;28;20629;-71
2022/01/30 05:33:36;;;;;;;6.05;1.83;;;5.50;99.90;;;;;;5038319;28;20229;-71
2022/01/30 05:36:03;;;;;;;5.18;1.50;;;5.50;99.90;;;;;;5043235;28;20255;-71
2022/01/30 05:38:31;;;;;;;1.25;1.10;;;5.50;99.90;;;;;;5045300;28;20466;-72
2022/01/30 05:40:58;;;;;;;3.30;2.00;;;5.40;99.90;;;;;;5047467;28;20550;-72
2022/01/30 05:43:29;;;;;;;1.40;1.30;;;5.30;99.90;;;;;;5036710;28;20218;-70
2022/01/30 05:46:07;;;;;;;4.00;1.17;;;5.30;99.90;;;;;;5048548;28;20213;-71
2022/01/30 05:48:34;;;;;;;3.72;2.08;;;5.20;99.90;;;;;;5034382;28;20222;-73
2022/01/30 05:51:01;;;;;;;7.40;1.80;;;5.30;99.90;;;;;;5032280;28;20265;-72
2022/01/30 05:53:28;;;;;;;2.78;1.33;;;5.30;99.90;;;;;;5039876;28;20269;-72
2022/01/30 05:55:55;;;;;;;3.67;1.80;;;5.40;99.90;;;;;;5030489;28;20292;-72
2022/01/30 05:58:22;;;;;;;4.18;0.98;;;5.40;99.90;;;;;;5034736;28;20217;-72
2022/01/30 06:00:50;;;;;;;8.13;1.48;;;5.50;99.90;;;;;;5049139;28;20205;-72
2022/01/30 06:03:17;;;;;;;5.07;1.77;;;5.50;99.90;;;;;;5047653;28;20711;-71
2022/01/30 06:05:46;;;;;;;2.58;1.10;;;5.60;99.90;;;;;;5046918;28;20699;-71
2022/01/30 06:08:15;;;;;;;1.42;1.02;;;5.60;99.90;;;;;;5050073;28;20226;-71
2022/01/30 06:10:42;;;;;;;3.70;1.02;;;5.70;99.90;;;;;;5043689;28;20224;-71
2022/01/30 06:13:09;;;;;;;2.45;1.27;;;5.70;99.90;;;;;;5039808;28;20206;-71
2022/01/30 06:15:35;;;;;;;6.90;1.40;;;5.70;99.90;;;;;;5049357;28;20263;-72
2022/01/30 06:18:04;;;;;;;0.50;0.47;;;5.70;99.90;;;;;;5078590;22;20232;-64
2022/01/30 06:20:30;;;;;;;2.67;1.45;;;5.70;99.90;;;;;;5061122;28;20208;-65
2022/01/30 06:22:57;;;;;;;3.30;1.63;;;5.70;99.90;;;;;;5075998;28;20221;-65
2022/01/30 06:25:24;;;;;;;7.88;1.70;;;5.70;99.90;;;;;;5070756;28;20272;-65
2022/01/30 06:27:50;;;;;;;1.42;1.33;;;5.60;99.90;;;;;;5066698;28;20291;-66
2022/01/30 06:30:21;;;;;;;3.95;1.85;;;5.60;99.90;;;;;;5063614;28;20197;-65
2022/01/30 06:32:48;;;;;;;2.97;1.42;;;5.50;99.90;;;;;;5060935;28;20209;-65
2022/01/30 06:35:16;;;;;;;1.63;1.50;;;5.40;99.90;;;;;;5066033;28;20291;-66
2022/01/30 06:37:43;;;;;;;4.40;1.88;;;5.30;99.90;;;;;;5065609;28;20626;-66
2022/01/30 06:40:11;;;;;;;2.05;1.80;;;5.20;99.90;;;;;;5065804;28;20212;-65
2022/01/30 06:42:37;;;;;;;5.80;1.70;;;5.20;99.90;;;;;;5065760;28;20233;-66
2022/01/30 06:45:05;;;;;;;3.50;2.15;;;5.20;99.90;;;;;;5065679;28;20205;-65
2022/01/30 06:47:32;;;;;;;11.70;1.83;;;5.30;99.90;;;;;;5066249;28;20302;-65
2022/01/30 06:49:58;;;;;;;1.63;1.10;;;5.30;99.90;;;;;;5066449;28;20197;-65
2022/01/30 06:52:26;;;;;;;3.15;1.02;;;5.40;99.90;;;;;;5066322;28;20212;-66
2022/01/30 06:54:53;;;;;;;3.55;1.67;;;5.40;99.90;;;;;;5065130;28;20273;-65
2022/01/30 06:57:19;;;;;;;6.72;1.15;;;5.40;99.90;;;;;;5065801;28;20251;-65
2022/01/30 06:59:46;;;;;;;3.25;1.65;;;5.50;99.90;;;;;;5064419;28;20201;-65
2022/01/30 07:02:13;;;;;;;3.70;0.70;;;5.50;99.90;;;;;;5056809;28;20307;-64
2022/01/30 07:04:40;;;;;;;3.50;2.25;;;5.50;99.90;;;;;;5054644;28;20217;-65
2022/01/30 07:07:07;;;;;;;3.78;1.98;;;5.50;99.90;;;;;;5064559;28;20232;-64
2022/01/30 07:09:35;;;;;;;2.83;1.20;;;5.60;99.90;;;;;;5065470;28;20209;-64
2022/01/30 07:12:02;;;;;;;1.65;1.13;;;5.60;99.90;;;;;;5064541;28;20197;-65
2022/01/30 07:14:29;;;;;;;6.45;1.83;;;5.60;99.90;;;;;;5064004;28;20647;-69
2022/01/30 07:16:56;;;;;;;6.20;1.30;;;5.60;99.90;;;;;;5062792;28;20293;-67
2022/01/30 07:19:23;;;;;;;3.67;1.45;;;5.60;99.90;;;;;;5061351;28;20299;-65
2022/01/30 07:21:50;;;;;;;1.25;1.15;;;5.60;99.90;;;;;;5063961;28;20193;-67
2022/01/30 07:24:16;;;;;;;4.25;1.25;;;5.60;99.90;;;;;;5065568;28;21010;-68
2022/01/30 07:26:44;;;;;;;0.60;0.50;;;5.70;99.90;;;;;;5072692;28;20824;-68
2022/01/30 07:29:11;;;;;;;5.75;1.23;;;5.60;99.90;;;;;;5067271;28;20259;-68
2022/01/30 07:31:38;;;;;;;4.72;0.88;;;5.60;99.90;;;;;;5056208;28;20204;-68
2022/01/30 07:34:05;;;;;;;1.30;0.98;;;5.70;99.90;;;;;;5062521;28;20197;-67
2022/01/30 07:36:35;;;;;;;6.90;2.08;;;5.70;99.90;;;;;;5072576;28;20232;-67
2022/01/30 07:39:05;;;;;;;10.10;3.10;;;5.70;99.90;;;;;;5064543;28;20228;-67
2022/01/30 07:41:31;;;;;;;5.22;2.03;;;5.70;99.90;;;;;;5073700;28;20205;-67
2022/01/30 07:44:00;;;;;;;1.88;1.45;;;5.70;99.90;;;;;;5069347;28;20224;-67
2022/01/30 07:46:27;;;;;;;7.93;1.75;;;5.70;99.90;;;;;;5069724;28;20274;-67
2022/01/30 07:48:54;;;;;;;2.90;0.93;;;5.80;99.90;;;;;;5073317;28;20560;-67
2022/01/30 07:51:21;;;;;;;1.48;1.38;;;5.70;99.90;;;;;;5073488;28;20208;-67
2022/01/30 07:53:47;;;;;;;8.20;1.40;;;5.80;99.90;;;;;;5072119;28;20343;-67
2022/01/30 07:56:14;;;;;;;2.65;0.95;;;5.70;99.90;;;;;;5072709;28;20307;-67
2022/01/30 07:58:41;;;;;;;14.65;2.47;;;5.70;99.90;;;;;;5074463;28;20711;-67
2022/01/30 08:01:09;;;;;;;6.28;2.28;;;5.70;99.90;;;;;;5078107;28;20251;-67
2022/01/30 08:03:35;;;;;;;4.10;2.00;;;5.80;99.90;;;;;;5077796;28;20222;-67
2022/01/30 08:06:02;;;;;;;3.83;1.48;;;5.80;99.90;;;;;;5076619;28;20651;-66
2022/01/30 08:08:29;;;;;;;3.08;0.88;;;5.80;99.90;;;;;;5078571;28;20378;-67
2022/01/30 08:10:55;;;;;;;8.88;1.63;;;5.80;99.90;;;;;;5071781;28;20278;-69
2022/01/30 08:13:22;;;;;;;2.10;1.13;;;5.80;99.90;;;;;;5067878;28;20274;-68
2022/01/30 08:15:49;;;;;;;3.58;1.33;;;5.90;99.90;;;;;;5067767;28;20300;-67
2022/01/30 08:18:17;;;;;;;1.05;0.95;;;5.80;99.90;;;;;;5067450;28;20300;-71
2022/01/30 08:20:44;;;;;;;0.70;0.70;;;5.90;99.90;;;;;;5066507;28;20202;-71
2022/01/30 08:23:12;;;;;;;5.00;1.52;;;5.90;99.90;;;;;;5065534;28;20598;-68
2022/01/30 08:25:40;;;;;;;6.50;1.63;;;6.00;99.90;;;;;;5068725;28;20216;-68
2022/01/30 08:28:07;;;;;;;3.70;1.77;;;6.00;99.90;;;;;;5069709;28;20314;-68
2022/01/30 08:30:34;;;;;;;1.65;0.85;;;6.00;99.90;;;;;;5069286;28;20216;-68
2022/01/30 08:33:02;;;;;;;2.55;0.93;;;6.00;99.90;;;;;;5066600;28;20570;-69
2022/01/30 08:35:31;;;;;;;10.30;1.80;;;6.00;99.90;;;;;;5060107;28;20209;-68
2022/01/30 08:37:59;;;;;;;1.15;0.60;;;6.00;99.90;;;;;;5067229;28;20602;-68
2022/01/30 08:40:26;;;;;;;3.88;1.65;;;6.00;99.90;;;;;;5066480;28;20318;-67
2022/01/30 08:42:53;;;;;;;4.03;1.23;;;6.10;99.90;;;;;;5063937;28;20306;-68
2022/01/30 08:45:22;;;;;;;5.22;2.85;;;6.10;99.90;;;;;;5068698;28;20621;-68
2022/01/30 08:47:50;;;;;;;10.68;2.15;;;6.10;99.90;;;;;;5068977;28;20237;-68
2022/01/30 08:50:18;;;;;;;1.95;1.85;;;6.00;99.90;;;;;;5071842;28;20213;-68
2022/01/30 08:52:47;;;;;;;2.42;1.98;;;5.90;99.90;;;;;;5066420;28;20522;-68
2022/01/30 08:55:15;;;;;;;5.10;1.55;;;5.90;99.90;;;;;;5068071;28;20201;-68
2022/01/30 08:57:42;;;;;;;6.47;1.52;;;6.00;99.90;;;;;;5069487;28;20225;-68
2022/01/30 09:00:11;;;;;;;5.38;0.95;;;6.20;99.90;;;;;;5068205;28;20276;-69
2022/01/30 09:02:38;;;;;;;0.40;0.38;;;6.30;99.90;;;;;;5065937;28;20201;-68
2022/01/30 09:05:06;;;;;;;3.90;1.30;;;6.50;99.90;;;;;;5067278;28;20225;-69
2022/01/30 09:07:32;;;;;;;0.80;0.80;;;6.70;99.90;;;;;;5071847;28;20639;-68
2022/01/30 09:10:00;;;;;;;4.40;1.33;;;6.70;99.90;;;;;;5074789;28;20204;-67
2022/01/30 09:12:27;;;;;;;0.98;0.63;;;6.70;99.90;;;;;;5074342;28;20205;-68
2022/01/30 09:14:54;;;;;;;3.95;1.55;;;6.60;99.90;;;;;;5074726;28;20558;-66
2022/01/30 09:17:22;;;;;;;12.98;1.55;;;6.70;99.90;;;;;;5073582;28;20224;-67
2022/01/30 09:19:49;;;;;;;1.25;0.73;;;6.90;99.90;;;;;;5067219;28;20208;-67
2022/01/30 09:22:18;;;;;;;3.80;1.90;;;7.00;99.90;;;;;;5065528;28;20694;-70
2022/01/30 09:24:45;;;;;;;8.88;3.35;;;7.20;99.90;;;;;;5068422;28;20217;-67
2022/01/30 09:27:13;;;;;;;4.95;1.60;;;7.40;99.90;;;;;;5067399;28;20213;-67
2022/01/30 09:29:40;;;;;;;5.00;1.95;;;7.50;99.90;;;;;;5067339;28;20267;-67
2022/01/30 09:32:08;;;;;;;3.33;0.95;;;7.50;99.90;;;;;;5067557;28;20705;-67
2022/01/30 09:34:35;;;;;;;9.70;2.28;;;7.50;99.90;;;;;;5066672;28;20224;-67
2022/01/30 09:37:03;;;;;;;3.92;1.25;;;7.50;99.90;;;;;;5069469;28;20217;-66
2022/01/30 09:39:29;;;;;;;2.85;1.92;;;7.50;99.90;;;;;;5066597;28;20289;-67
2022/01/30 09:41:57;;;;;;;1.15;1.00;;;7.40;99.90;;;;;;5067499;28;20212;-66
2022/01/30 09:44:25;;;;;;;3.40;0.93;;;7.40;99.90;;;;;;5067559;28;20266;-66
2022/01/30 09:46:52;;;;;;;3.72;1.30;;;7.40;99.90;;;;;;5066045;28;20201;-64
2022/01/30 09:49:23;;;;;;;3.15;1.42;;;7.40;99.90;;;;;;5066109;28;20247;-66
2022/01/30 09:51:53;;;;;;;1.92;0.95;;;7.40;99.90;;;;;;5064994;28;20694;-68
2022/01/30 09:54:20;;;;;;;5.30;0.80;;;7.40;99.90;;;;;;5058880;28;20274;-67
2022/01/30 09:56:47;;;;;;;6.55;2.10;;;7.30;99.90;;;;;;5065879;28;20201;-66
2022/01/30 09:59:14;;;;;;;1.33;0.82;;;7.10;99.90;;;;;;5061741;28;20651;-68
2022/01/30 10:01:42;;;;;;;2.97;1.70;;;7.10;99.90;;;;;;5065027;28;20223;-67
2022/01/30 10:04:09;;;;;;;5.15;1.13;;;7.30;99.90;;;;;;5063184;28;20691;-71
2022/01/30 10:06:53;;;;;;;11.55;2.75;;;7.80;99.90;;;;;;5063036;28;20202;-69
2022/01/30 10:09:28;;;;;;;4.72;1.95;;;8.10;99.90;;;;;;5064512;28;20231;-67
2022/01/30 10:12:11;;;;;;;2.90;0.93;;;8.30;99.90;;;;;;5064087;28;20830;-68
2022/01/30 10:14:52;;;;;;;4.95;2.08;;;8.30;99.90;;;;;;5067255;28;20272;-68
2022/01/30 10:17:29;;;;;;;2.70;1.67;;;8.10;99.90;;;;;;5074448;28;20200;-68
2022/01/30 10:20:09;;;;;;;3.92;1.30;;;8.00;99.90;;;;;;5072874;28;20208;-68
2022/01/30 10:22:38;;;;;;;3.78;1.65;;;8.20;99.90;;;;;;5070772;28;20205;-67
2022/01/30 10:25:05;;;;;;;3.10;1.30;;;8.50;99.90;;;;;;5069286;28;20235;-68
2022/01/30 10:27:33;;;;;;;12.13;2.83;;;8.60;99.90;;;;;;5071172;28;20486;-70
2022/01/30 10:30:02;;;;;;;8.55;1.75;;;8.50;99.90;;;;;;5064587;28;20499;-68
2022/01/30 10:32:30;;;;;;;5.68;1.40;;;8.40;99.90;;;;;;5072534;28;20218;-67
2022/01/30 10:35:03;;;;;;;8.83;1.97;;;8.40;99.90;;;;;;5065036;28;20197;-67
2022/01/30 10:37:30;;;;;;;8.33;1.77;;;8.70;99.90;;;;;;5064145;28;20855;-67
2022/01/30 10:40:02;;;;;;;5.80;2.70;;;8.80;99.90;;;;;;5065482;28;20447;-68
2022/01/30 10:42:42;;;;;;;3.23;1.37;;;9.30;99.90;;;;;;5059563;28;20983;-68
2022/01/30 10:45:12;;;;;;;3.80;1.40;;;9.50;99.90;;;;;;5062919;28;20495;-68
2022/01/30 10:47:41;;;;;;;3.87;1.97;;;9.40;99.90;;;;;;5064429;28;20472;-68
2022/01/30 10:50:15;;;;;;;2.53;1.20;;;9.10;99.90;;;;;;5064214;28;20451;-68
2022/01/30 10:52:56;;;;;;;7.07;1.93;;;8.80;99.90;;;;;;5061705;28;20435;-68
2022/01/30 10:55:39;;;;;;;4.77;1.47;;;8.60;99.90;;;;;;5064881;28;20763;-68
2022/01/30 10:58:07;;;;;;;4.50;1.70;;;8.60;99.90;;;;;;5063589;28;20486;-68
2022/01/30 11:00:42;;;;;;;8.03;1.80;;;8.80;99.90;;;;;;5063342;28;20814;-68
2022/01/30 11:03:31;;;;;;;1.80;0.87;;;9.00;99.90;;;;;;5062703;28;20544;-70
2022/01/30 11:05:59;;;;;;;12.80;3.23;;;9.20;99.90;;;;;;5060836;28;20462;-69
2022/01/30 11:08:29;;;;;;;2.87;1.20;;;9.40;99.90;;;;;;5061830;28;20476;-68
2022/01/30 11:11:07;;;;;;;9.20;1.47;;;9.40;99.90;;;;;;5062937;28;20463;-70
2022/01/30 11:13:46;;;;;;;3.50;1.67;;;9.20;99.90;;;;;;5063084;28;20598;-70
2022/01/30 11:19:02;;;;;;;3.20;1.70;;;8.90;99.90;;;;;;5056294;28;20637;-68
2022/01/30 11:21:29;;;;;;;7.40;1.90;;;9.10;99.90;;;;;;5068303;28;20927;-68
2022/01/30 11:23:59;;;;;;;5.73;2.37;;;9.40;99.90;;;;;;5068808;28;20454;-68
2022/01/30 11:26:26;;;;;;;4.13;1.37;;;9.60;99.90;;;;;;5066664;28;21029;-68
2022/01/30 11:28:53;;;;;;;4.00;1.53;;;9.90;99.90;;;;;;5066834;28;20471;-68
2022/01/30 11:31:20;;;;;;;3.60;1.37;;;10.20;99.90;;;;;;5067370;28;20737;-68
2022/01/30 11:33:50;;;;;;;7.10;3.50;;;10.40;99.90;;;;;;5066914;28;20456;-68
2022/01/30 11:36:18;;;;;;;1.40;1.10;;;10.70;99.90;;;;;;5066808;28;20480;-69
2022/01/30 11:38:45;;;;;;;4.33;1.67;;;10.90;99.90;;;;;;5065985;28;20548;-68
2022/01/30 11:41:14;;;;;;;4.77;2.20;;;11.20;99.90;;;;;;5066006;28;20428;-69
2022/01/30 11:43:43;;;;;;;9.90;2.73;;;11.00;99.90;;;;;;5066546;28;20467;-69
2022/01/30 11:46:15;;;;;;;2.03;0.93;;;11.20;99.90;;;;;;5065423;28;20462;-68
2022/01/30 11:48:42;;;;;;;4.70;1.83;;;11.10;99.90;;;;;;5066388;28;20943;-68
2022/01/30 11:51:09;;;;;;;4.73;1.40;;;11.20;99.90;;;;;;5065631;28;21011;-68
2022/01/30 11:53:38;;;;;;;3.63;0.80;;;11.50;99.90;;;;;;5066936;28;20948;-69
2022/01/30 11:56:06;;;;;;;4.13;1.30;;;11.90;99.90;;;;;;5066793;28;20551;-70
2022/01/30 11:58:38;;;;;;;6.13;3.10;;;12.40;99.90;;;;;;5065635;28;20475;-69
2022/01/30 12:01:06;;;;;;;5.60;1.63;;;12.50;99.90;;;;;;5065820;28;20458;-69
2022/01/30 12:03:36;;;;;;;7.03;2.20;;;12.20;99.90;;;;;;5066951;28;20453;-71
2022/01/30 12:06:33;;;;;;;3.93;1.63;;;12.00;99.90;;;;;;5066056;28;20566;-70
2022/01/30 12:09:04;;;;;;;3.17;1.50;;;11.50;99.90;;;;;;5065897;28;20470;-68
2022/01/30 12:11:55;;;;;;;5.40;2.37;;;11.00;99.90;;;;;;5065188;28;20471;-71
2022/01/30 12:14:56;;;;;;;8.33;1.43;;;10.50;99.90;;;;;;5065110;28;20529;-71
2022/01/30 12:17:45;;;;;;;3.00;2.00;;;10.10;99.90;;;;;;5064296;28;20457;-70
2022/01/30 12:20:12;;;;;;;3.07;1.33;;;9.80;99.90;;;;;;5062339;28;20981;-68
2022/01/30 12:22:42;;;;;;;2.93;0.90;;;9.80;99.90;;;;;;5065878;28;20444;-68
2022/01/30 12:25:38;;;;;;;4.73;1.93;;;9.70;99.90;;;;;;5066354;28;21032;-69
2022/01/30 12:28:09;;;;;;;6.87;2.60;;;9.50;99.90;;;;;;5048809;28;20834;-68
2022/01/30 12:30:53;;;;;;;12.33;2.13;;;9.30;99.90;;;;;;5055145;28;20456;-68
2022/01/30 12:33:42;;;;;;;2.20;1.37;;;9.30;99.90;;;;;;5065669;28;20508;-68
2022/01/30 12:36:15;;;;;;;6.13;3.20;;;9.30;99.90;;;;;;5066628;28;20444;-68
2022/01/30 12:38:42;;;;;;;7.47;3.00;;;9.30;99.90;;;;;;5054077;28;20529;-69
2022/01/30 12:41:21;;;;;;;4.93;2.30;;;9.40;99.90;;;;;;5065312;28;20474;-67
2022/01/30 12:43:54;;;;;;;4.80;1.80;;;9.40;99.90;;;;;;5066324;28;20550;-69
2022/01/30 12:46:25;;;;;;;4.43;2.10;;;9.40;99.90;;;;;;5066583;28;20479;-69
2022/01/30 12:49:12;;;;;;;11.63;3.40;;;9.50;99.90;;;;;;5065898;28;20480;-68
2022/01/30 12:51:40;;;;;;;6.90;2.13;;;9.50;99.90;;;;;;5055385;28;20436;-68
2022/01/30 12:54:08;;;;;;;2.17;1.00;;;9.40;99.90;;;;;;5066065;28;20546;-68
2022/01/30 12:56:37;;;;;;;6.43;1.90;;;9.30;99.90;;;;;;5065313;28;20541;-69
2022/01/30 12:59:10;;;;;;;2.00;0.80;;;9.30;99.90;;;;;;5065565;28;20476;-68
2022/01/30 13:01:40;;;;;;;6.40;2.20;;;9.30;99.90;;;;;;5065961;28;20460;-69
2022/01/30 13:04:11;;;;;;;5.67;1.83;;;9.30;99.90;;;;;;5065703;28;20617;-68
2022/01/30 13:06:40;;;;;;;6.20;1.47;;;9.50;99.90;;;;;;5065161;28;20474;-68
2022/01/30 13:09:07;;;;;;;2.80;1.20;;;9.70;99.90;;;;;;5064473;28;21164;-69
2022/01/30 13:11:35;;;;;;;3.00;1.80;;;9.70;99.90;;;;;;5065420;28;20460;-69
2022/01/30 13:14:04;;;;;;;6.63;2.57;;;9.70;99.90;;;;;;5064016;28;20509;-69
2022/01/30 13:16:34;;;;;;;2.73;1.90;;;9.70;99.90;;;;;;5063904;28;20448;-69
2022/01/30 13:19:02;;;;;;;6.07;2.90;;;9.70;99.90;;;;;;5064228;28;20479;-69
2022/01/30 13:21:31;;;;;;;5.93;1.83;;;9.70;99.90;;;;;;5063031;28;20484;-69
2022/01/30 13:23:59;;;;;;;4.10;2.07;;;9.80;99.90;;;;;;5057469;28;21013;-69
2022/01/30 13:26:45;;;;;;;1.80;1.43;;;9.90;99.90;;;;;;5063764;28;21037;-69
2022/01/30 13:29:18;;;;;;;4.27;1.30;;;10.00;99.90;;;;;;5063779;28;20622;-69
2022/01/30 13:31:49;;;;;;;2.00;1.37;;;10.10;99.90;;;;;;5064483;28;20480;-69
2022/01/30 13:34:22;;;;;;;2.23;1.23;;;10.00;99.90;;;;;;5063271;28;20796;-68
2022/01/30 13:36:54;;;;;;;8.27;3.10;;;9.90;99.90;;;;;;5064053;28;20844;-69
2022/01/30 13:39:33;;;;;;;9.53;2.73;;;9.80;99.90;;;;;;5063649;28;20563;-69
2022/01/30 13:46:54;;;;;;;3.60;1.30;;;10.00;99.90;;;;;;5054896;28;20538;-69
2022/01/30 13:47:52;;;;;;;4.53;1.73;;;10.00;99.90;;;;;;5060231;28;20466;-70